sensor_id;sensor_type;location;lat;lon;timestamp;P1;durP1;ratioP1;P2;durP2;ratioP2
17967;SDS011;9109;48.050;11.696;2023-07-08T04:01:51;14.45;;;7.18;;
17967;SDS011;9109;48.050;11.696;2023-07-08T04:04:53;15.07;;;7.00;;
17967;SDS011;9109;48.050;11.696;2023-07-08T04:07:55;17.48;;;6.95;;
17967;SDS011;9109;48.050;11.696;2023-07-08T04:10:57;15.50;;;7.32;;
17967;SDS011;9109;48.050;11.696;2023-07-08T04:13:58;14.48;;;6.88;;
17967;SDS011;9109;48.050;11.696;2023-07-08T04:17:03;16.00;;;6.32;;
17967;SDS011;9109;48.050;11.696;2023-07-08T04:20:07;20.75;;;7.35;;
17967;SDS011;9109;48.050;11.696;2023-07-08T04:23:10;12.60;;;6.78;;
17967;SDS011;9109;48.050;11.696;2023-07-08T04:26:12;15.80;;;7.00;;
17967;SDS011;9109;48.050;11.696;2023-07-08T04:29:15;15.02;;;6.93;;
17967;SDS011;9109;48.050;11.696;2023-07-08T04:32:20;18.10;;;7.07;;
17967;SDS011;9109;48.050;11.696;2023-07-08T04:35:25;12.38;;;6.95;;
17967;SDS011;9109;48.050;11.696;2023-07-08T04:38:27;15.55;;;6.80;;
17967;SDS011;9109;48.050;11.696;2023-07-08T04:41:29;14.48;;;7.50;;
17967;SDS011;9109;48.050;11.696;2023-07-08T04:44:30;14.15;;;7.38;;
17967;SDS011;9109;48.050;11.696;2023-07-08T04:47:34;15.25;;;7.65;;
17967;SDS011;9109;48.050;11.696;2023-07-08T04:50:36;16.75;;;7.13;;
17967;SDS011;9109;48.050;11.696;2023-07-08T04:53:39;14.02;;;7.07;;
17967;SDS011;9109;48.050;11.696;2023-07-08T04:56:42;20.20;;;6.95;;
17967;SDS011;9109;48.050;11.696;2023-07-08T04:59:45;16.52;;;7.60;;
17967;SDS011;9109;48.050;11.696;2023-07-08T05:02:48;16.83;;;7.35;;
17967;SDS011;9109;48.050;11.696;2023-07-08T05:05:50;17.42;;;7.68;;
17967;SDS011;9109;48.050;11.696;2023-07-08T05:08:52;18.25;;;7.90;;
17967;SDS011;9109;48.050;11.696;2023-07-08T05:11:54;16.90;;;7.40;;
17967;SDS011;9109;48.050;11.696;2023-07-08T05:14:57;12.60;;;6.65;;
17967;SDS011;9109;48.050;11.696;2023-07-08T05:18:00;19.90;;;7.63;;
17967;SDS011;9109;48.050;11.696;2023-07-08T05:21:02;15.27;;;7.32;;
17967;SDS011;9109;48.050;11.696;2023-07-08T05:24:05;16.75;;;7.85;;
17967;SDS011;9109;48.050;11.696;2023-07-08T05:27:08;18.73;;;8.13;;
17967;SDS011;9109;48.050;11.696;2023-07-08T05:30:11;15.43;;;7.93;;
17967;SDS011;9109;48.050;11.696;2023-07-08T05:33:17;15.90;;;7.30;;
17967;SDS011;9109;48.050;11.696;2023-07-08T05:36:19;14.45;;;7.72;;
17967;SDS011;9109;48.050;11.696;2023-07-08T05:39:21;17.35;;;8.63;;
17967;SDS011;9109;48.050;11.696;2023-07-08T05:42:24;15.77;;;7.63;;
17967;SDS011;9109;48.050;11.696;2023-07-08T05:45:25;16.27;;;8.07;;
17967;SDS011;9109;48.050;11.696;2023-07-08T05:48:29;15.23;;;7.85;;
17967;SDS011;9109;48.050;11.696;2023-07-08T05:51:33;21.63;;;8.13;;
17967;SDS011;9109;48.050;11.696;2023-07-08T05:54:35;15.57;;;7.60;;
17967;SDS011;9109;48.050;11.696;2023-07-08T05:57:37;17.83;;;8.30;;
17967;SDS011;9109;48.050;11.696;2023-07-08T06:00:39;17.50;;;8.10;;
17967;SDS011;9109;48.050;11.696;2023-07-08T06:03:42;16.15;;;8.48;;
17967;SDS011;9109;48.050;11.696;2023-07-08T06:06:44;19.42;;;8.05;;
17967;SDS011;9109;48.050;11.696;2023-07-08T06:09:46;16.73;;;8.00;;
17967;SDS011;9109;48.050;11.696;2023-07-08T06:12:48;13.95;;;7.70;;
17967;SDS011;9109;48.050;11.696;2023-07-08T06:15:49;13.88;;;7.95;;
17967;SDS011;9109;48.050;11.696;2023-07-08T06:18:53;14.23;;;7.38;;
17967;SDS011;9109;48.050;11.696;2023-07-08T06:21:55;15.95;;;7.70;;
17967;SDS011;9109;48.050;11.696;2023-07-08T06:24:56;18.10;;;8.00;;
17967;SDS011;9109;48.050;11.696;2023-07-08T06:27:58;13.00;;;6.78;;
17967;SDS011;9109;48.050;11.696;2023-07-08T06:31:01;16.23;;;7.75;;
17967;SDS011;9109;48.050;11.696;2023-07-08T06:34:05;15.82;;;8.07;;
17967;SDS011;9109;48.050;11.696;2023-07-08T06:37:07;17.98;;;8.18;;
17967;SDS011;9109;48.050;11.696;2023-07-08T06:40:09;16.08;;;7.78;;
17967;SDS011;9109;48.050;11.696;2023-07-08T06:43:12;16.35;;;7.50;;
17967;SDS011;9109;48.050;11.696;2023-07-08T06:46:14;20.00;;;8.07;;
17967;SDS011;9109;48.050;11.696;2023-07-08T06:49:17;16.88;;;7.82;;
17967;SDS011;9109;48.050;11.696;2023-07-08T06:52:19;18.48;;;8.05;;
17967;SDS011;9109;48.050;11.696;2023-07-08T06:55:21;14.32;;;6.80;;
17967;SDS011;9109;48.050;11.696;2023-07-08T06:58:23;14.93;;;7.30;;
17967;SDS011;9109;48.050;11.696;2023-07-08T07:01:25;17.40;;;7.10;;
17967;SDS011;9109;48.050;11.696;2023-07-08T07:04:28;19.00;;;7.35;;
17967;SDS011;9109;48.050;11.696;2023-07-08T07:07:32;20.77;;;8.15;;
17967;SDS011;9109;48.050;11.696;2023-07-08T07:10:34;16.52;;;7.35;;
17967;SDS011;9109;48.050;11.696;2023-07-08T07:13:36;18.90;;;6.50;;
17967;SDS011;9109;48.050;11.696;2023-07-08T07:16:38;12.95;;;7.13;;
17967;SDS011;9109;48.050;11.696;2023-07-08T07:19:41;12.48;;;6.95;;
17967;SDS011;9109;48.050;11.696;2023-07-08T07:22:43;14.50;;;7.13;;
17967;SDS011;9109;48.050;11.696;2023-07-08T07:25:46;16.02;;;7.20;;
17967;SDS011;9109;48.050;11.696;2023-07-08T07:28:48;12.45;;;6.95;;
17967;SDS011;9109;48.050;11.696;2023-07-08T07:31:50;15.25;;;7.13;;
17967;SDS011;9109;48.050;11.696;2023-07-08T07:34:54;13.93;;;7.10;;
17967;SDS011;9109;48.050;11.696;2023-07-08T07:37:57;14.52;;;7.25;;
17967;SDS011;9109;48.050;11.696;2023-07-08T07:40:59;15.48;;;7.05;;
17967;SDS011;9109;48.050;11.696;2023-07-08T07:44:06;13.82;;;6.20;;
17967;SDS011;9109;48.050;11.696;2023-07-08T07:47:08;15.98;;;6.82;;
17967;SDS011;9109;48.050;11.696;2023-07-08T07:50:12;16.60;;;7.70;;
17967;SDS011;9109;48.050;11.696;2023-07-08T07:53:14;16.92;;;7.13;;
17967;SDS011;9109;48.050;11.696;2023-07-08T07:56:16;13.70;;;6.28;;
17967;SDS011;9109;48.050;11.696;2023-07-08T07:59:18;13.98;;;6.72;;
17967;SDS011;9109;48.050;11.696;2023-07-08T08:02:20;14.05;;;6.68;;
17967;SDS011;9109;48.050;11.696;2023-07-08T08:05:23;15.32;;;6.70;;
17967;SDS011;9109;48.050;11.696;2023-07-08T08:08:25;12.77;;;6.70;;
17967;SDS011;9109;48.050;11.696;2023-07-08T08:11:28;13.23;;;6.55;;
17967;SDS011;9109;48.050;11.696;2023-07-08T08:14:30;13.82;;;6.90;;
17967;SDS011;9109;48.050;11.696;2023-07-08T08:17:32;14.40;;;6.10;;
17967;SDS011;9109;48.050;11.696;2023-07-08T08:20:35;16.45;;;6.50;;
17967;SDS011;9109;48.050;11.696;2023-07-08T08:23:39;16.90;;;6.85;;
17967;SDS011;9109;48.050;11.696;2023-07-08T08:26:41;16.45;;;6.97;;
17967;SDS011;9109;48.050;11.696;2023-07-08T08:29:43;21.52;;;7.65;;
17967;SDS011;9109;48.050;11.696;2023-07-08T08:32:45;17.58;;;6.68;;
17967;SDS011;9109;48.050;11.696;2023-07-08T08:35:48;16.33;;;6.88;;
17967;SDS011;9109;48.050;11.696;2023-07-08T08:38:50;15.38;;;6.78;;
17967;SDS011;9109;48.050;11.696;2023-07-08T08:41:52;16.60;;;7.63;;
17967;SDS011;9109;48.050;11.696;2023-07-08T08:44:55;18.15;;;7.43;;
17967;SDS011;9109;48.050;11.696;2023-07-08T08:48:00;15.90;;;7.20;;
17967;SDS011;9109;48.050;11.696;2023-07-08T08:51:06;15.95;;;7.65;;
17967;SDS011;9109;48.050;11.696;2023-07-08T08:54:13;16.02;;;7.80;;
17967;SDS011;9109;48.050;11.696;2023-07-08T08:57:17;16.20;;;7.15;;
17967;SDS011;9109;48.050;11.696;2023-07-08T09:00:37;15.80;;;7.57;;
17967;SDS011;9109;48.050;11.696;2023-07-08T09:03:49;16.13;;;6.78;;
17967;SDS011;9109;48.050;11.696;2023-07-08T09:06:57;12.10;;;6.75;;
17967;SDS011;9109;48.050;11.696;2023-07-08T09:10:08;14.57;;;7.47;;
17967;SDS011;9109;48.050;11.696;2023-07-08T09:13:19;14.73;;;7.88;;
17967;SDS011;9109;48.050;11.696;2023-07-08T09:16:26;14.55;;;7.40;;
17967;SDS011;9109;48.050;11.696;2023-07-08T09:19:39;16.58;;;7.47;;
17967;SDS011;9109;48.050;11.696;2023-07-08T09:22:46;18.73;;;8.40;;
17967;SDS011;9109;48.050;11.696;2023-07-08T09:25:56;16.67;;;7.20;;
17967;SDS011;9109;48.050;11.696;2023-07-08T09:29:01;12.05;;;6.90;;
17967;SDS011;9109;48.050;11.696;2023-07-08T09:32:13;13.68;;;7.43;;
17967;SDS011;9109;48.050;11.696;2023-07-08T09:35:19;14.35;;;6.95;;
17967;SDS011;9109;48.050;11.696;2023-07-08T09:38:24;12.40;;;6.88;;
17967;SDS011;9109;48.050;11.696;2023-07-08T09:41:28;19.02;;;7.55;;
17967;SDS011;9109;48.050;11.696;2023-07-08T09:44:32;14.35;;;7.32;;
17967;SDS011;9109;48.050;11.696;2023-07-08T09:47:36;13.63;;;7.07;;
17967;SDS011;9109;48.050;11.696;2023-07-08T09:50:42;12.65;;;6.28;;
17967;SDS011;9109;48.050;11.696;2023-07-08T09:53:46;15.65;;;7.72;;
17967;SDS011;9109;48.050;11.696;2023-07-08T09:56:54;19.58;;;7.55;;
17967;SDS011;9109;48.050;11.696;2023-07-08T10:00:00;16.13;;;7.18;;
17967;SDS011;9109;48.050;11.696;2023-07-08T10:03:05;17.65;;;7.18;;
17967;SDS011;9109;48.050;11.696;2023-07-08T10:06:16;13.68;;;6.45;;
17967;SDS011;9109;48.050;11.696;2023-07-08T10:09:23;16.60;;;6.82;;
17967;SDS011;9109;48.050;11.696;2023-07-08T10:12:26;16.90;;;7.43;;
17967;SDS011;9109;48.050;11.696;2023-07-08T10:15:31;17.13;;;7.28;;
17967;SDS011;9109;48.050;11.696;2023-07-08T10:18:37;14.00;;;6.20;;
17967;SDS011;9109;48.050;11.696;2023-07-08T10:21:42;16.17;;;7.20;;
17967;SDS011;9109;48.050;11.696;2023-07-08T10:24:55;16.10;;;6.53;;
17967;SDS011;9109;48.050;11.696;2023-07-08T10:28:12;12.30;;;6.63;;
17967;SDS011;9109;48.050;11.696;2023-07-08T10:31:27;12.15;;;6.03;;
17967;SDS011;9109;48.050;11.696;2023-07-08T10:34:36;12.05;;;6.28;;
17967;SDS011;9109;48.050;11.696;2023-07-08T10:37:47;10.90;;;5.68;;
17967;SDS011;9109;48.050;11.696;2023-07-08T10:41:17;12.45;;;5.97;;
17967;SDS011;9109;48.050;11.696;2023-07-08T10:44:31;14.32;;;6.38;;
17967;SDS011;9109;48.050;11.696;2023-07-08T10:47:44;11.45;;;5.93;;
17967;SDS011;9109;48.050;11.696;2023-07-08T10:51:00;12.10;;;5.80;;
17967;SDS011;9109;48.050;11.696;2023-07-08T10:54:20;9.63;;;5.18;;
17967;SDS011;9109;48.050;11.696;2023-07-08T10:57:41;14.13;;;5.72;;
17967;SDS011;9109;48.050;11.696;2023-07-08T11:01:11;12.07;;;5.82;;
17967;SDS011;9109;48.050;11.696;2023-07-08T11:04:26;13.20;;;6.50;;
17967;SDS011;9109;48.050;11.696;2023-07-08T11:07:45;8.85;;;5.20;;
17967;SDS011;9109;48.050;11.696;2023-07-08T11:10:51;10.25;;;6.05;;
17967;SDS011;9109;48.050;11.696;2023-07-08T11:13:59;11.90;;;5.95;;
17967;SDS011;9109;48.050;11.696;2023-07-08T11:17:09;9.55;;;5.28;;
17967;SDS011;9109;48.050;11.696;2023-07-08T11:20:20;12.18;;;6.40;;
17967;SDS011;9109;48.050;11.696;2023-07-08T11:23:26;14.38;;;5.88;;
17967;SDS011;9109;48.050;11.696;2023-07-08T11:26:36;11.75;;;5.78;;
17967;SDS011;9109;48.050;11.696;2023-07-08T11:29:45;11.70;;;5.70;;
17967;SDS011;9109;48.050;11.696;2023-07-08T11:32:52;9.63;;;5.25;;
17967;SDS011;9109;48.050;11.696;2023-07-08T11:35:58;9.98;;;5.40;;
17967;SDS011;9109;48.050;11.696;2023-07-08T11:39:04;13.05;;;6.65;;
17967;SDS011;9109;48.050;11.696;2023-07-08T11:42:31;20.17;;;6.45;;
17967;SDS011;9109;48.050;11.696;2023-07-08T11:45:38;11.02;;;6.20;;
17967;SDS011;9109;48.050;11.696;2023-07-08T11:48:45;10.02;;;5.78;;
17967;SDS011;9109;48.050;11.696;2023-07-08T11:51:49;13.35;;;6.00;;
17967;SDS011;9109;48.050;11.696;2023-07-08T11:54:56;11.68;;;6.05;;
17967;SDS011;9109;48.050;11.696;2023-07-08T11:58:05;13.57;;;6.10;;
17967;SDS011;9109;48.050;11.696;2023-07-08T12:01:23;16.25;;;5.85;;
17967;SDS011;9109;48.050;11.696;2023-07-08T12:04:30;12.48;;;5.45;;
17967;SDS011;9109;48.050;11.696;2023-07-08T12:07:37;19.02;;;6.50;;
17967;SDS011;9109;48.050;11.696;2023-07-08T12:10:45;11.77;;;5.75;;
17967;SDS011;9109;48.050;11.696;2023-07-08T12:13:49;10.65;;;5.85;;
17967;SDS011;9109;48.050;11.696;2023-07-08T12:16:53;18.73;;;6.30;;
17967;SDS011;9109;48.050;11.696;2023-07-08T12:19:55;10.52;;;5.68;;
17967;SDS011;9109;48.050;11.696;2023-07-08T12:23:04;14.43;;;6.50;;
17967;SDS011;9109;48.050;11.696;2023-07-08T12:26:13;11.80;;;6.25;;
17967;SDS011;9109;48.050;11.696;2023-07-08T12:29:16;12.20;;;6.15;;
17967;SDS011;9109;48.050;11.696;2023-07-08T12:32:19;9.10;;;5.80;;
17967;SDS011;9109;48.050;11.696;2023-07-08T12:35:27;21.60;;;6.50;;
17967;SDS011;9109;48.050;11.696;2023-07-08T12:38:31;11.65;;;6.13;;
17967;SDS011;9109;48.050;11.696;2023-07-08T12:41:34;14.57;;;5.88;;
17967;SDS011;9109;48.050;11.696;2023-07-08T12:44:36;11.05;;;6.28;;
17967;SDS011;9109;48.050;11.696;2023-07-08T12:47:44;9.98;;;6.07;;
17967;SDS011;9109;48.050;11.696;2023-07-08T12:50:46;14.50;;;6.10;;
17967;SDS011;9109;48.050;11.696;2023-07-08T12:53:50;10.13;;;5.97;;
17967;SDS011;9109;48.050;11.696;2023-07-08T12:56:53;12.82;;;6.35;;
17967;SDS011;9109;48.050;11.696;2023-07-08T12:59:56;8.75;;;5.65;;
17967;SDS011;9109;48.050;11.696;2023-07-08T13:03:01;11.18;;;6.47;;
17967;SDS011;9109;48.050;11.696;2023-07-08T13:06:07;11.98;;;6.47;;
17967;SDS011;9109;48.050;11.696;2023-07-08T13:09:23;13.07;;;6.25;;
17967;SDS011;9109;48.050;11.696;2023-07-08T13:12:36;16.30;;;6.55;;
17967;SDS011;9109;48.050;11.696;2023-07-08T13:15:40;13.50;;;6.38;;
17967;SDS011;9109;48.050;11.696;2023-07-08T13:18:44;11.85;;;6.78;;
17967;SDS011;9109;48.050;11.696;2023-07-08T13:21:47;15.50;;;6.63;;
17967;SDS011;9109;48.050;11.696;2023-07-08T13:24:54;16.58;;;6.50;;
17967;SDS011;9109;48.050;11.696;2023-07-08T13:28:01;17.35;;;6.47;;
17967;SDS011;9109;48.050;11.696;2023-07-08T13:31:16;12.18;;;6.63;;
17967;SDS011;9109;48.050;11.696;2023-07-08T13:34:23;12.52;;;5.95;;
17967;SDS011;9109;48.050;11.696;2023-07-08T13:37:25;12.65;;;6.53;;
17967;SDS011;9109;48.050;11.696;2023-07-08T13:40:28;9.70;;;5.60;;
17967;SDS011;9109;48.050;11.696;2023-07-08T13:43:31;10.15;;;5.68;;
17967;SDS011;9109;48.050;11.696;2023-07-08T13:46:36;13.65;;;5.63;;
17967;SDS011;9109;48.050;11.696;2023-07-08T13:49:43;10.95;;;5.63;;
17967;SDS011;9109;48.050;11.696;2023-07-08T13:52:46;13.35;;;5.95;;
17967;SDS011;9109;48.050;11.696;2023-07-08T13:55:58;17.38;;;5.50;;
17967;SDS011;9109;48.050;11.696;2023-07-08T13:59:03;9.43;;;4.68;;
17967;SDS011;9109;48.050;11.696;2023-07-08T14:02:13;11.30;;;5.85;;
17967;SDS011;9109;48.050;11.696;2023-07-08T14:05:19;11.85;;;5.82;;
17967;SDS011;9109;48.050;11.696;2023-07-08T14:08:21;14.48;;;5.60;;
17967;SDS011;9109;48.050;11.696;2023-07-08T14:11:24;12.73;;;5.50;;
17967;SDS011;9109;48.050;11.696;2023-07-08T14:14:26;13.32;;;5.95;;
17967;SDS011;9109;48.050;11.696;2023-07-08T14:17:28;8.68;;;4.88;;
17967;SDS011;9109;48.050;11.696;2023-07-08T14:20:31;10.25;;;5.00;;
17967;SDS011;9109;48.050;11.696;2023-07-08T14:23:33;11.00;;;4.93;;
17967;SDS011;9109;48.050;11.696;2023-07-08T14:26:36;10.57;;;5.30;;
17967;SDS011;9109;48.050;11.696;2023-07-08T14:29:38;12.13;;;5.82;;
17967;SDS011;9109;48.050;11.696;2023-07-08T14:32:42;10.93;;;5.63;;
17967;SDS011;9109;48.050;11.696;2023-07-08T14:35:47;8.65;;;5.15;;
17967;SDS011;9109;48.050;11.696;2023-07-08T14:38:49;13.85;;;5.28;;
17967;SDS011;9109;48.050;11.696;2023-07-08T14:41:51;9.80;;;5.43;;
17967;SDS011;9109;48.050;11.696;2023-07-08T14:44:53;12.65;;;5.63;;
17967;SDS011;9109;48.050;11.696;2023-07-08T14:47:55;13.20;;;5.20;;
17967;SDS011;9109;48.050;11.696;2023-07-08T14:50:59;9.40;;;4.32;;
17967;SDS011;9109;48.050;11.696;2023-07-08T14:54:01;10.38;;;4.78;;
17967;SDS011;9109;48.050;11.696;2023-07-08T14:57:03;12.00;;;4.82;;
17967;SDS011;9109;48.050;11.696;2023-07-08T15:00:09;10.32;;;4.82;;
17967;SDS011;9109;48.050;11.696;2023-07-08T15:03:13;9.57;;;5.30;;
17967;SDS011;9109;48.050;11.696;2023-07-08T15:06:17;12.45;;;5.05;;
17967;SDS011;9109;48.050;11.696;2023-07-08T15:09:19;10.27;;;5.45;;
17967;SDS011;9109;48.050;11.696;2023-07-08T15:12:22;10.05;;;4.90;;
17967;SDS011;9109;48.050;11.696;2023-07-08T15:15:26;15.18;;;5.97;;
17967;SDS011;9109;48.050;11.696;2023-07-08T15:18:30;9.95;;;5.07;;
17967;SDS011;9109;48.050;11.696;2023-07-08T15:21:35;12.02;;;4.93;;
17967;SDS011;9109;48.050;11.696;2023-07-08T15:24:37;12.50;;;4.63;;
17967;SDS011;9109;48.050;11.696;2023-07-08T15:27:39;11.45;;;5.07;;
17967;SDS011;9109;48.050;11.696;2023-07-08T15:30:43;10.43;;;5.22;;
17967;SDS011;9109;48.050;11.696;2023-07-08T15:33:46;9.60;;;4.57;;
17967;SDS011;9109;48.050;11.696;2023-07-08T15:36:49;13.15;;;5.35;;
17967;SDS011;9109;48.050;11.696;2023-07-08T15:39:52;9.77;;;5.53;;
17967;SDS011;9109;48.050;11.696;2023-07-08T15:42:54;14.13;;;5.38;;
17967;SDS011;9109;48.050;11.696;2023-07-08T15:46:02;10.43;;;5.10;;
17967;SDS011;9109;48.050;11.696;2023-07-08T15:49:09;10.90;;;4.88;;
17967;SDS011;9109;48.050;11.696;2023-07-08T15:52:17;12.23;;;5.32;;
17967;SDS011;9109;48.050;11.696;2023-07-08T15:55:20;11.85;;;5.07;;
17967;SDS011;9109;48.050;11.696;2023-07-08T16:07:58;14.40;;;4.80;;
17967;SDS011;9109;48.050;11.696;2023-07-08T16:11:01;17.38;;;5.53;;
17967;SDS011;9109;48.050;11.696;2023-07-08T16:14:05;13.93;;;5.43;;
17967;SDS011;9109;48.050;11.696;2023-07-08T16:17:08;9.27;;;4.57;;
17967;SDS011;9109;48.050;11.696;2023-07-08T16:20:15;10.05;;;4.85;;
17967;SDS011;9109;48.050;11.696;2023-07-08T16:23:20;10.10;;;4.80;;
17967;SDS011;9109;48.050;11.696;2023-07-08T16:26:23;10.32;;;5.22;;
17967;SDS011;9109;48.050;11.696;2023-07-08T16:29:25;10.70;;;5.07;;
17967;SDS011;9109;48.050;11.696;2023-07-08T16:32:28;9.75;;;5.07;;
17967;SDS011;9109;48.050;11.696;2023-07-08T16:35:31;9.60;;;4.45;;
17967;SDS011;9109;48.050;11.696;2023-07-08T16:38:34;9.85;;;5.00;;
17967;SDS011;9109;48.050;11.696;2023-07-08T16:41:36;11.60;;;5.50;;
17967;SDS011;9109;48.050;11.696;2023-07-08T16:44:38;13.40;;;6.68;;
17967;SDS011;9109;48.050;11.696;2023-07-08T16:47:42;13.77;;;5.10;;
17967;SDS011;9109;48.050;11.696;2023-07-08T16:50:44;25.15;;;9.00;;
17967;SDS011;9109;48.050;11.696;2023-07-08T16:53:48;9.70;;;5.60;;
17967;SDS011;9109;48.050;11.696;2023-07-08T16:56:50;13.10;;;6.25;;
17967;SDS011;9109;48.050;11.696;2023-07-08T16:59:52;17.23;;;5.05;;
17967;SDS011;9109;48.050;11.696;2023-07-08T17:02:54;11.75;;;5.13;;
17967;SDS011;9109;48.050;11.696;2023-07-08T17:05:55;17.95;;;4.82;;
17967;SDS011;9109;48.050;11.696;2023-07-08T17:08:59;12.77;;;4.68;;
17967;SDS011;9109;48.050;11.696;2023-07-08T17:12:06;10.90;;;4.90;;
17967;SDS011;9109;48.050;11.696;2023-07-08T17:15:09;7.43;;;4.00;;
17967;SDS011;9109;48.050;11.696;2023-07-08T17:18:17;10.13;;;4.88;;
17967;SDS011;9109;48.050;11.696;2023-07-08T17:21:21;9.43;;;4.80;;
17967;SDS011;9109;48.050;11.696;2023-07-08T17:24:24;11.75;;;5.00;;
17967;SDS011;9109;48.050;11.696;2023-07-08T17:27:26;10.68;;;4.78;;
17967;SDS011;9109;48.050;11.696;2023-07-08T17:30:27;14.18;;;9.05;;
17967;SDS011;9109;48.050;11.696;2023-07-08T17:33:30;12.45;;;5.00;;
17967;SDS011;9109;48.050;11.696;2023-07-08T17:36:33;10.65;;;4.78;;
17967;SDS011;9109;48.050;11.696;2023-07-08T17:39:37;9.60;;;4.18;;
17967;SDS011;9109;48.050;11.696;2023-07-08T17:42:39;8.02;;;4.72;;
17967;SDS011;9109;48.050;11.696;2023-07-08T17:52:01;9.10;;;5.68;;
17967;SDS011;9109;48.050;11.696;2023-07-08T17:55:17;12.63;;;6.50;;
17967;SDS011;9109;48.050;11.696;2023-07-08T17:58:20;31.17;;;16.33;;
17967;SDS011;9109;48.050;11.696;2023-07-08T18:01:24;12.80;;;5.40;;
17967;SDS011;9109;48.050;11.696;2023-07-08T18:04:28;11.20;;;5.35;;
17967;SDS011;9109;48.050;11.696;2023-07-08T18:11:43;9.65;;;5.03;;
17967;SDS011;9109;48.050;11.696;2023-07-08T18:14:47;10.00;;;5.00;;
17967;SDS011;9109;48.050;11.696;2023-07-08T18:17:52;23.92;;;4.68;;
17967;SDS011;9109;48.050;11.696;2023-07-08T18:20:56;8.13;;;5.10;;
17967;SDS011;9109;48.050;11.696;2023-07-08T18:23:57;10.65;;;5.57;;
17967;SDS011;9109;48.050;11.696;2023-07-08T18:27:01;13.32;;;4.80;;
17967;SDS011;9109;48.050;11.696;2023-07-08T18:30:03;13.65;;;5.03;;
17967;SDS011;9109;48.050;11.696;2023-07-08T18:33:08;11.88;;;5.00;;
17967;SDS011;9109;48.050;11.696;2023-07-08T18:36:14;11.05;;;5.63;;
17967;SDS011;9109;48.050;11.696;2023-07-08T18:39:18;13.73;;;5.85;;
17967;SDS011;9109;48.050;11.696;2023-07-08T18:42:21;10.25;;;5.18;;
17967;SDS011;9109;48.050;11.696;2023-07-08T18:45:24;14.05;;;5.78;;
17967;SDS011;9109;48.050;11.696;2023-07-08T18:48:26;16.00;;;5.68;;
17967;SDS011;9109;48.050;11.696;2023-07-08T18:51:36;14.45;;;6.60;;
17967;SDS011;9109;48.050;11.696;2023-07-08T18:54:40;16.77;;;7.43;;
17967;SDS011;9109;48.050;11.696;2023-07-08T18:57:43;13.77;;;6.20;;
17967;SDS011;9109;48.050;11.696;2023-07-08T19:00:48;15.98;;;6.03;;
17967;SDS011;9109;48.050;11.696;2023-07-08T19:03:52;15.35;;;6.47;;
17967;SDS011;9109;48.050;11.696;2023-07-08T19:07:00;11.68;;;6.35;;
17967;SDS011;9109;48.050;11.696;2023-07-08T19:10:03;11.27;;;6.03;;
17967;SDS011;9109;48.050;11.696;2023-07-08T19:13:13;15.35;;;6.20;;
17967;SDS011;9109;48.050;11.696;2023-07-08T19:16:18;12.98;;;6.45;;
17967;SDS011;9109;48.050;11.696;2023-07-08T19:19:21;13.40;;;6.25;;
17967;SDS011;9109;48.050;11.696;2023-07-08T19:22:28;12.27;;;6.15;;
17967;SDS011;9109;48.050;11.696;2023-07-08T19:25:30;11.65;;;6.22;;
17967;SDS011;9109;48.050;11.696;2023-07-08T19:28:36;16.10;;;6.68;;
17967;SDS011;9109;48.050;11.696;2023-07-08T19:31:46;13.95;;;6.10;;
17967;SDS011;9109;48.050;11.696;2023-07-08T19:34:48;15.10;;;5.63;;
17967;SDS011;9109;48.050;11.696;2023-07-08T19:37:51;15.13;;;6.22;;
17967;SDS011;9109;48.050;11.696;2023-07-08T19:40:53;10.27;;;6.40;;
17967;SDS011;9109;48.050;11.696;2023-07-08T19:43:57;12.73;;;6.65;;
17967;SDS011;9109;48.050;11.696;2023-07-08T19:47:10;15.50;;;6.55;;
17967;SDS011;9109;48.050;11.696;2023-07-08T19:50:12;17.23;;;6.43;;
17967;SDS011;9109;48.050;11.696;2023-07-08T19:53:14;11.90;;;6.97;;
17967;SDS011;9109;48.050;11.696;2023-07-08T19:56:17;12.88;;;6.78;;
17967;SDS011;9109;48.050;11.696;2023-07-08T19:59:24;14.30;;;6.97;;
17967;SDS011;9109;48.050;11.696;2023-07-08T20:02:27;16.00;;;7.43;;
17967;SDS011;9109;48.050;11.696;2023-07-08T20:05:30;15.73;;;7.03;;
17967;SDS011;9109;48.050;11.696;2023-07-08T20:08:34;20.35;;;7.47;;
17967;SDS011;9109;48.050;11.696;2023-07-08T20:11:36;15.88;;;7.85;;
17967;SDS011;9109;48.050;11.696;2023-07-08T20:14:42;17.52;;;7.22;;
17967;SDS011;9109;48.050;11.696;2023-07-08T20:17:44;20.15;;;7.43;;
17967;SDS011;9109;48.050;11.696;2023-07-08T20:20:46;19.40;;;7.18;;
17967;SDS011;9109;48.050;11.696;2023-07-08T20:23:49;15.93;;;7.53;;
17967;SDS011;9109;48.050;11.696;2023-07-08T20:26:51;15.75;;;7.68;;
17967;SDS011;9109;48.050;11.696;2023-07-08T20:29:55;14.95;;;6.85;;
17967;SDS011;9109;48.050;11.696;2023-07-08T20:32:57;16.30;;;7.80;;
17967;SDS011;9109;48.050;11.696;2023-07-08T20:35:59;17.75;;;7.47;;
17967;SDS011;9109;48.050;11.696;2023-07-08T20:39:01;12.52;;;7.15;;
17967;SDS011;9109;48.050;11.696;2023-07-08T20:42:03;14.63;;;7.20;;
17967;SDS011;9109;48.050;11.696;2023-07-08T20:45:10;20.80;;;8.05;;
17967;SDS011;9109;48.050;11.696;2023-07-08T20:48:16;20.63;;;8.10;;
17967;SDS011;9109;48.050;11.696;2023-07-08T20:51:23;18.02;;;7.82;;
17967;SDS011;9109;48.050;11.696;2023-07-08T20:54:25;22.73;;;8.40;;
17967;SDS011;9109;48.050;11.696;2023-07-08T20:57:27;16.90;;;8.05;;
17967;SDS011;9109;48.050;11.696;2023-07-08T21:00:31;17.75;;;7.93;;
17967;SDS011;9109;48.050;11.696;2023-07-08T21:03:31;14.77;;;7.22;;
17967;SDS011;9109;48.050;11.696;2023-07-08T21:06:34;17.48;;;7.53;;
17967;SDS011;9109;48.050;11.696;2023-07-08T21:09:39;15.25;;;8.07;;
17967;SDS011;9109;48.050;11.696;2023-07-08T21:12:41;17.52;;;7.57;;
17967;SDS011;9109;48.050;11.696;2023-07-08T21:15:44;19.70;;;8.25;;
17967;SDS011;9109;48.050;11.696;2023-07-08T21:18:47;13.15;;;7.55;;
17967;SDS011;9109;48.050;11.696;2023-07-08T21:21:50;15.57;;;7.18;;
17967;SDS011;9109;48.050;11.696;2023-07-08T21:24:52;15.65;;;7.38;;
17967;SDS011;9109;48.050;11.696;2023-07-08T21:27:54;18.42;;;7.78;;
17967;SDS011;9109;48.050;11.696;2023-07-08T21:30:58;13.77;;;7.07;;
17967;SDS011;9109;48.050;11.696;2023-07-08T21:34:00;17.42;;;7.20;;
17967;SDS011;9109;48.050;11.696;2023-07-08T21:37:02;15.38;;;8.05;;
17967;SDS011;9109;48.050;11.696;2023-07-08T21:40:06;16.80;;;7.60;;
17967;SDS011;9109;48.050;11.696;2023-07-08T21:43:18;20.70;;;8.75;;
17967;SDS011;9109;48.050;11.696;2023-07-08T21:46:23;17.75;;;8.10;;
17967;SDS011;9109;48.050;11.696;2023-07-08T21:49:25;23.10;;;8.18;;
17967;SDS011;9109;48.050;11.696;2023-07-08T21:52:27;20.02;;;8.50;;
17967;SDS011;9109;48.050;11.696;2023-07-08T21:55:29;29.45;;;8.55;;
17967;SDS011;9109;48.050;11.696;2023-07-08T21:58:31;15.27;;;8.90;;
17967;SDS011;9109;48.050;11.696;2023-07-08T22:01:34;16.35;;;7.65;;
17967;SDS011;9109;48.050;11.696;2023-07-08T22:04:36;18.83;;;8.10;;
17967;SDS011;9109;48.050;11.696;2023-07-08T22:07:38;14.68;;;7.43;;
17967;SDS011;9109;48.050;11.696;2023-07-08T22:10:40;25.45;;;8.25;;
17967;SDS011;9109;48.050;11.696;2023-07-08T22:13:43;17.10;;;7.57;;
17967;SDS011;9109;48.050;11.696;2023-07-08T22:16:50;16.08;;;7.05;;
17967;SDS011;9109;48.050;11.696;2023-07-08T22:20:08;21.20;;;7.10;;
17967;SDS011;9109;48.050;11.696;2023-07-08T22:23:17;14.88;;;7.28;;
17967;SDS011;9109;48.050;11.696;2023-07-08T22:26:21;21.63;;;8.60;;
17967;SDS011;9109;48.050;11.696;2023-07-08T22:29:33;16.90;;;8.15;;
17967;SDS011;9109;48.050;11.696;2023-07-08T22:32:45;18.27;;;7.22;;
17967;SDS011;9109;48.050;11.696;2023-07-08T22:35:55;11.80;;;6.80;;
17967;SDS011;9109;48.050;11.696;2023-07-08T22:38:59;14.20;;;7.43;;